sensor_id;sensor_type;location;lat;lon;timestamp;pressure;altitude;pressure_sealevel;temperature;humidity
52777;BME280;38656;54.260;20.822;2023-04-28T00:02:12;101382.28;;;11.01;62.63
52777;BME280;38656;54.260;20.822;2023-04-28T00:04:38;101377.66;;;11.18;62.40
52777;BME280;38656;54.260;20.822;2023-04-28T00:07:04;101379.69;;;11.27;62.11
52777;BME280;38656;54.260;20.822;2023-04-28T00:09:30;101387.09;;;11.22;61.85
52777;BME280;38656;54.260;20.822;2023-04-28T00:11:56;101379.56;;;11.15;61.51
52777;BME280;38656;54.260;20.822;2023-04-28T00:14:23;101379.13;;;11.09;61.67
52777;BME280;38656;54.260;20.822;2023-04-28T00:16:49;101374.34;;;11.01;61.55
52777;BME280;38656;54.260;20.822;2023-04-28T00:19:15;101376.53;;;10.82;61.87
52777;BME280;38656;54.260;20.822;2023-04-28T00:21:41;101376.94;;;10.75;63.33
52777;BME280;38656;54.260;20.822;2023-04-28T00:24:08;101373.06;;;10.94;61.89
52777;BME280;38656;54.260;20.822;2023-04-28T00:26:34;101370.34;;;11.08;62.18
52777;BME280;38656;54.260;20.822;2023-04-28T00:29:00;101382.16;;;10.90;63.00
52777;BME280;38656;54.260;20.822;2023-04-28T00:31:26;101378.66;;;10.76;62.78
52777;BME280;38656;54.260;20.822;2023-04-28T00:33:52;101372.66;;;10.87;62.05
52777;BME280;38656;54.260;20.822;2023-04-28T00:36:18;101377.84;;;10.89;62.00
52777;BME280;38656;54.260;20.822;2023-04-28T00:38:45;101377.25;;;10.71;62.14
52777;BME280;38656;54.260;20.822;2023-04-28T00:41:11;101384.09;;;10.73;62.69
52777;BME280;38656;54.260;20.822;2023-04-28T00:44:04;101386.59;;;10.89;62.40
52777;BME280;38656;54.260;20.822;2023-04-28T00:46:32;101385.13;;;10.98;62.38
52777;BME280;38656;54.260;20.822;2023-04-28T00:48:59;101371.19;;;10.96;62.11
52777;BME280;38656;54.260;20.822;2023-04-28T00:51:25;101384.72;;;11.04;62.12
52777;BME280;38656;54.260;20.822;2023-04-28T00:53:54;101383.03;;;11.03;61.94
52777;BME280;38656;54.260;20.822;2023-04-28T00:56:21;101380.72;;;11.11;61.63
52777;BME280;38656;54.260;20.822;2023-04-28T00:58:47;101388.75;;;11.23;61.41
52777;BME280;38656;54.260;20.822;2023-04-28T01:01:13;101382.97;;;10.77;61.91
52777;BME280;38656;54.260;20.822;2023-04-28T01:03:40;101388.59;;;10.86;62.29
52777;BME280;38656;54.260;20.822;2023-04-28T01:06:08;101385.97;;;10.86;61.87
52777;BME280;38656;54.260;20.822;2023-04-28T01:08:36;101397.16;;;10.76;62.46
52777;BME280;38656;54.260;20.822;2023-04-28T01:11:02;101381.66;;;10.70;63.26
52777;BME280;38656;54.260;20.822;2023-04-28T01:13:29;101382.28;;;10.61;63.81
52777;BME280;38656;54.260;20.822;2023-04-28T01:15:55;101384.59;;;10.53;64.24
52777;BME280;38656;54.260;20.822;2023-04-28T01:18:22;101389.88;;;10.53;63.20
52777;BME280;38656;54.260;20.822;2023-04-28T01:20:49;101382.78;;;9.83;66.08
52777;BME280;38656;54.260;20.822;2023-04-28T01:23:16;101382.22;;;10.06;65.52
52777;BME280;38656;54.260;20.822;2023-04-28T01:25:43;101382.53;;;10.29;65.01
52777;BME280;38656;54.260;20.822;2023-04-28T01:28:09;101383.38;;;9.73;69.72
52777;BME280;38656;54.260;20.822;2023-04-28T01:30:36;101392.06;;;8.56;79.45
52777;BME280;38656;54.260;20.822;2023-04-28T01:33:03;101391.00;;;8.26;82.54
52777;BME280;38656;54.260;20.822;2023-04-28T01:35:32;101392.19;;;8.05;83.77
52777;BME280;38656;54.260;20.822;2023-04-28T01:37:58;101394.03;;;7.71;89.10
52777;BME280;38656;54.260;20.822;2023-04-28T01:40:24;101387.81;;;8.53;87.08
52777;BME280;38656;54.260;20.822;2023-04-28T01:42:50;101387.13;;;8.18;87.55
52777;BME280;38656;54.260;20.822;2023-04-28T01:45:16;101392.91;;;7.75;90.83
52777;BME280;38656;54.260;20.822;2023-04-28T01:47:43;101393.16;;;8.67;85.89
52777;BME280;38656;54.260;20.822;2023-04-28T01:50:10;101386.69;;;8.73;85.41
52777;BME280;38656;54.260;20.822;2023-04-28T01:52:36;101386.69;;;7.60;91.51
52777;BME280;38656;54.260;20.822;2023-04-28T01:55:03;101390.53;;;8.36;87.84
52777;BME280;38656;54.260;20.822;2023-04-28T01:57:29;101390.97;;;8.44;89.15
52777;BME280;38656;54.260;20.822;2023-04-28T01:59:55;101385.06;;;8.71;86.44
52777;BME280;38656;54.260;20.822;2023-04-28T02:02:21;101388.66;;;8.06;87.16
52777;BME280;38656;54.260;20.822;2023-04-28T02:04:48;101382.22;;;9.34;84.99
52777;BME280;38656;54.260;20.822;2023-04-28T02:07:14;101380.72;;;9.73;80.71
52777;BME280;38656;54.260;20.822;2023-04-28T02:09:40;101385.97;;;9.30;81.01
52777;BME280;38656;54.260;20.822;2023-04-28T02:12:06;101390.63;;;8.34;86.23
52777;BME280;38656;54.260;20.822;2023-04-28T02:14:33;101387.25;;;9.09;84.60
52777;BME280;38656;54.260;20.822;2023-04-28T02:16:59;101389.34;;;8.57;85.56
52777;BME280;38656;54.260;20.822;2023-04-28T02:19:25;101388.38;;;9.04;82.97
52777;BME280;38656;54.260;20.822;2023-04-28T02:21:51;101388.63;;;8.70;84.91
52777;BME280;38656;54.260;20.822;2023-04-28T02:24:18;101385.25;;;8.36;85.88
52777;BME280;38656;54.260;20.822;2023-04-28T02:26:44;101384.47;;;8.02;88.52
52777;BME280;38656;54.260;20.822;2023-04-28T02:29:10;101387.97;;;8.50;84.41
52777;BME280;38656;54.260;20.822;2023-04-28T02:31:36;101387.63;;;7.92;86.95
52777;BME280;38656;54.260;20.822;2023-04-28T02:34:02;101392.97;;;8.71;86.09
52777;BME280;38656;54.260;20.822;2023-04-28T02:36:29;101387.81;;;7.72;86.88
52777;BME280;38656;54.260;20.822;2023-04-28T02:38:55;101385.59;;;8.13;86.82
52777;BME280;38656;54.260;20.822;2023-04-28T02:41:21;101389.44;;;7.23;89.70
52777;BME280;38656;54.260;20.822;2023-04-28T02:43:47;101397.72;;;7.16;90.91
52777;BME280;38656;54.260;20.822;2023-04-28T02:46:14;101397.03;;;7.12;89.73
52777;BME280;38656;54.260;20.822;2023-04-28T02:48:40;101396.38;;;7.42;91.93
52777;BME280;38656;54.260;20.822;2023-04-28T02:51:06;101392.16;;;7.73;88.92
52777;BME280;38656;54.260;20.822;2023-04-28T02:53:32;101395.94;;;7.34;91.55
52777;BME280;38656;54.260;20.822;2023-04-28T02:55:58;101390.41;;;7.05;91.98
52777;BME280;38656;54.260;20.822;2023-04-28T02:58:26;101387.72;;;7.57;92.16
52777;BME280;38656;54.260;20.822;2023-04-28T03:00:53;101395.25;;;7.30;93.19
52777;BME280;38656;54.260;20.822;2023-04-28T03:03:19;101393.09;;;7.03;92.45
52777;BME280;38656;54.260;20.822;2023-04-28T03:05:45;101392.00;;;7.25;95.40
52777;BME280;38656;54.260;20.822;2023-04-28T03:08:11;101391.00;;;6.75;95.40
52777;BME280;38656;54.260;20.822;2023-04-28T03:10:37;101391.19;;;7.40;91.80
52777;BME280;38656;54.260;20.822;2023-04-28T03:13:03;101386.53;;;8.12;89.38
52777;BME280;38656;54.260;20.822;2023-04-28T03:15:30;101387.56;;;7.60;89.62
52777;BME280;38656;54.260;20.822;2023-04-28T03:17:56;101390.16;;;8.10;87.83
52777;BME280;38656;54.260;20.822;2023-04-28T03:20:22;101388.81;;;7.53;90.20
52777;BME280;38656;54.260;20.822;2023-04-28T03:22:48;101389.84;;;8.16;89.36
52777;BME280;38656;54.260;20.822;2023-04-28T03:25:15;101394.75;;;8.70;85.38
52777;BME280;38656;54.260;20.822;2023-04-28T03:27:41;101394.25;;;8.00;83.88
52777;BME280;38656;54.260;20.822;2023-04-28T03:30:07;101398.09;;;8.88;83.61
52777;BME280;38656;54.260;20.822;2023-04-28T03:32:35;101398.06;;;7.60;84.77
52777;BME280;38656;54.260;20.822;2023-04-28T03:35:01;101399.75;;;8.11;82.74
52777;BME280;38656;54.260;20.822;2023-04-28T03:37:27;101404.31;;;7.91;88.66
52777;BME280;38656;54.260;20.822;2023-04-28T03:39:53;101404.63;;;8.50;84.87
52777;BME280;38656;54.260;20.822;2023-04-28T03:42:19;101406.22;;;7.72;88.33
52777;BME280;38656;54.260;20.822;2023-04-28T03:44:46;101409.81;;;7.71;91.10
52777;BME280;38656;54.260;20.822;2023-04-28T03:47:12;101412.78;;;7.47;91.03
52777;BME280;38656;54.260;20.822;2023-04-28T03:49:38;101409.94;;;7.68;89.01
52777;BME280;38656;54.260;20.822;2023-04-28T03:52:04;101409.94;;;7.68;89.66
52777;BME280;38656;54.260;20.822;2023-04-28T03:54:30;101413.50;;;7.33;92.57
52777;BME280;38656;54.260;20.822;2023-04-28T03:56:57;101414.44;;;7.48;91.29
52777;BME280;38656;54.260;20.822;2023-04-28T03:59:23;101418.06;;;7.12;91.59
52777;BME280;38656;54.260;20.822;2023-04-28T04:01:49;101419.84;;;7.80;92.10
52777;BME280;38656;54.260;20.822;2023-04-28T04:04:15;101418.63;;;7.86;90.18
52777;BME280;38656;54.260;20.822;2023-04-28T04:06:42;101423.44;;;7.09;92.55
52777;BME280;38656;54.260;20.822;2023-04-28T04:09:08;101429.03;;;7.38;93.57
52777;BME280;38656;54.260;20.822;2023-04-28T04:11:34;101437.59;;;7.75;91.86
52777;BME280;38656;54.260;20.822;2023-04-28T04:14:01;101432.66;;;7.86;90.40
52777;BME280;38656;54.260;20.822;2023-04-28T04:16:27;101425.03;;;7.97;92.22
52777;BME280;38656;54.260;20.822;2023-04-28T04:18:54;101442.88;;;7.75;91.79
52777;BME280;38656;54.260;20.822;2023-04-28T04:21:20;101432.69;;;7.69;91.49
52777;BME280;38656;54.260;20.822;2023-04-28T04:23:46;101426.31;;;7.90;92.45
52777;BME280;38656;54.260;20.822;2023-04-28T04:26:12;101434.88;;;8.10;90.80
52777;BME280;38656;54.260;20.822;2023-04-28T04:28:38;101432.06;;;7.97;91.47
52777;BME280;38656;54.260;20.822;2023-04-28T04:31:05;101437.03;;;8.67;88.58
52777;BME280;38656;54.260;20.822;2023-04-28T04:33:31;101443.63;;;8.26;89.71
52777;BME280;38656;54.260;20.822;2023-04-28T04:35:57;101437.56;;;8.74;86.92
52777;BME280;38656;54.260;20.822;2023-04-28T04:38:24;101442.16;;;8.54;87.76
52777;BME280;38656;54.260;20.822;2023-04-28T04:40:50;101434.22;;;10.19;83.20
52777;BME280;38656;54.260;20.822;2023-04-28T04:43:16;101437.53;;;8.90;86.13
52777;BME280;38656;54.260;20.822;2023-04-28T04:45:42;101444.47;;;9.07;83.49
52777;BME280;38656;54.260;20.822;2023-04-28T04:48:08;101445.22;;;9.09;83.67
52777;BME280;38656;54.260;20.822;2023-04-28T04:50:35;101434.19;;;9.32;84.53
52777;BME280;38656;54.260;20.822;2023-04-28T04:53:01;101447.72;;;8.96;83.25
52777;BME280;38656;54.260;20.822;2023-04-28T04:55:27;101434.75;;;9.23;83.40
52777;BME280;38656;54.260;20.822;2023-04-28T04:57:53;101433.13;;;10.37;83.35
52777;BME280;38656;54.260;20.822;2023-04-28T05:00:20;101445.84;;;8.98;83.45
52777;BME280;38656;54.260;20.822;2023-04-28T05:02:46;101434.63;;;9.84;80.98
52777;BME280;38656;54.260;20.822;2023-04-28T05:05:12;101436.00;;;10.47;76.93
52777;BME280;38656;54.260;20.822;2023-04-28T05:07:39;101443.47;;;11.48;76.45
52777;BME280;38656;54.260;20.822;2023-04-28T05:10:05;101448.09;;;10.37;79.32
52777;BME280;38656;54.260;20.822;2023-04-28T05:12:32;101453.44;;;9.63;80.14
52777;BME280;38656;54.260;20.822;2023-04-28T05:14:58;101445.75;;;10.87;77.33
52777;BME280;38656;54.260;20.822;2023-04-28T05:17:24;101449.63;;;10.68;76.19
52777;BME280;38656;54.260;20.822;2023-04-28T05:19:50;101453.09;;;9.98;79.55
52777;BME280;38656;54.260;20.822;2023-04-28T05:22:17;101449.63;;;10.68;79.27
52777;BME280;38656;54.260;20.822;2023-04-28T05:24:43;101446.84;;;10.57;80.24
52777;BME280;38656;54.260;20.822;2023-04-28T05:27:09;101445.72;;;11.67;75.29
52777;BME280;38656;54.260;20.822;2023-04-28T05:29:35;101447.88;;;10.40;76.52
52777;BME280;38656;54.260;20.822;2023-04-28T05:32:02;101448.88;;;10.66;76.15
52777;BME280;38656;54.260;20.822;2023-04-28T05:34:28;101453.09;;;11.87;75.56
52777;BME280;38656;54.260;20.822;2023-04-28T05:36:54;101453.66;;;9.89;76.87
52777;BME280;38656;54.260;20.822;2023-04-28T05:39:20;101451.19;;;10.29;78.27
52777;BME280;38656;54.260;20.822;2023-04-28T05:41:46;101445.53;;;10.35;80.09
52777;BME280;38656;54.260;20.822;2023-04-28T05:44:13;101453.50;;;10.90;78.60
52777;BME280;38656;54.260;20.822;2023-04-28T05:46:39;101452.66;;;12.32;75.14
52777;BME280;38656;54.260;20.822;2023-04-28T05:49:05;101447.28;;;11.57;76.05
52777;BME280;38656;54.260;20.822;2023-04-28T05:51:31;101453.75;;;11.52;74.40
52777;BME280;38656;54.260;20.822;2023-04-28T05:53:58;101454.28;;;11.83;74.21
52777;BME280;38656;54.260;20.822;2023-04-28T05:56:25;101453.19;;;12.25;74.94
52777;BME280;38656;54.260;20.822;2023-04-28T05:58:51;101449.09;;;11.69;73.64
52777;BME280;38656;54.260;20.822;2023-04-28T06:01:18;101455.13;;;12.10;73.56
52777;BME280;38656;54.260;20.822;2023-04-28T06:03:44;101450.56;;;11.60;74.17
52777;BME280;38656;54.260;20.822;2023-04-28T06:06:11;101443.38;;;12.75;69.89
52777;BME280;38656;54.260;20.822;2023-04-28T06:08:38;101451.44;;;11.86;72.32
52777;BME280;38656;54.260;20.822;2023-04-28T06:11:04;101449.41;;;11.39;74.94
52777;BME280;38656;54.260;20.822;2023-04-28T06:13:30;101443.06;;;11.67;74.89
52777;BME280;38656;54.260;20.822;2023-04-28T06:15:57;101450.94;;;12.44;74.49
52777;BME280;38656;54.260;20.822;2023-04-28T06:18:26;101447.66;;;12.41;72.39
52777;BME280;38656;54.260;20.822;2023-04-28T06:20:52;101450.22;;;12.90;71.29
52777;BME280;38656;54.260;20.822;2023-04-28T06:23:18;101452.25;;;11.74;73.67
52777;BME280;38656;54.260;20.822;2023-04-28T06:25:44;101451.50;;;13.09;71.84
52777;BME280;38656;54.260;20.822;2023-04-28T06:28:10;101461.59;;;12.18;73.82
52777;BME280;38656;54.260;20.822;2023-04-28T06:30:38;101460.75;;;12.05;73.62
52777;BME280;38656;54.260;20.822;2023-04-28T06:33:04;101454.34;;;13.66;69.60
52777;BME280;38656;54.260;20.822;2023-04-28T06:35:30;101460.03;;;12.40;71.92
52777;BME280;38656;54.260;20.822;2023-04-28T06:37:56;101454.44;;;13.17;70.03
52777;BME280;38656;54.260;20.822;2023-04-28T06:40:23;101448.91;;;14.01;70.38
52777;BME280;38656;54.260;20.822;2023-04-28T06:42:49;101466.84;;;12.31;70.83
52777;BME280;38656;54.260;20.822;2023-04-28T06:45:15;101449.97;;;13.76;70.21
52777;BME280;38656;54.260;20.822;2023-04-28T06:47:42;101453.50;;;14.88;66.59
52777;BME280;38656;54.260;20.822;2023-04-28T06:50:08;101460.84;;;14.41;64.68
52777;BME280;38656;54.260;20.822;2023-04-28T06:52:34;101466.41;;;14.26;63.43
52777;BME280;38656;54.260;20.822;2023-04-28T06:55:01;101460.59;;;14.66;63.05
52777;BME280;38656;54.260;20.822;2023-04-28T06:57:27;101451.97;;;15.49;60.97
52777;BME280;38656;54.260;20.822;2023-04-28T06:59:53;101451.41;;;16.88;56.52
52777;BME280;38656;54.260;20.822;2023-04-28T07:02:20;101448.41;;;16.12;59.44
52777;BME280;38656;54.260;20.822;2023-04-28T07:04:47;101449.94;;;16.55;58.17
52777;BME280;38656;54.260;20.822;2023-04-28T07:07:14;101459.28;;;16.39;54.67
52777;BME280;38656;54.260;20.822;2023-04-28T07:09:40;101457.44;;;17.00;54.41
52777;BME280;38656;54.260;20.822;2023-04-28T07:12:10;101456.50;;;15.58;57.17
52777;BME280;38656;54.260;20.822;2023-04-28T07:14:36;101458.34;;;15.15;56.74
52777;BME280;38656;54.260;20.822;2023-04-28T07:17:02;101459.91;;;16.62;52.85
52777;BME280;38656;54.260;20.822;2023-04-28T07:19:29;101457.81;;;15.43;56.08
52777;BME280;38656;54.260;20.822;2023-04-28T07:21:55;101445.44;;;17.53;53.76
52777;BME280;38656;54.260;20.822;2023-04-28T07:24:21;101444.69;;;15.93;53.33
52777;BME280;38656;54.260;20.822;2023-04-28T07:26:48;101441.44;;;17.67;52.26
52777;BME280;38656;54.260;20.822;2023-04-28T07:29:15;101455.00;;;17.56;48.92
52777;BME280;38656;54.260;20.822;2023-04-28T07:31:41;101446.91;;;15.03;54.41
52777;BME280;38656;54.260;20.822;2023-04-28T07:34:08;101448.47;;;18.43;51.04
52777;BME280;38656;54.260;20.822;2023-04-28T07:36:38;101454.94;;;17.65;48.29
52777;BME280;38656;54.260;20.822;2023-04-28T07:39:04;101451.34;;;17.37;48.70
52777;BME280;38656;54.260;20.822;2023-04-28T07:41:34;101472.34;;;16.42;48.22
52777;BME280;38656;54.260;20.822;2023-04-28T07:44:00;101455.59;;;17.30;48.53
52777;BME280;38656;54.260;20.822;2023-04-28T07:46:26;101455.41;;;15.82;50.76
52777;BME280;38656;54.260;20.822;2023-04-28T07:48:53;101452.94;;;17.77;48.28
52777;BME280;38656;54.260;20.822;2023-04-28T07:51:19;101462.19;;;15.86;48.34
52777;BME280;38656;54.260;20.822;2023-04-28T07:53:46;101454.34;;;16.25;47.33
52777;BME280;38656;54.260;20.822;2023-04-28T07:56:12;101441.44;;;18.88;45.14
52777;BME280;38656;54.260;20.822;2023-04-28T07:58:38;101440.09;;;19.10;45.71
52777;BME280;38656;54.260;20.822;2023-04-28T08:01:04;101435.47;;;17.45;46.11
52777;BME280;38656;54.260;20.822;2023-04-28T08:03:31;101434.66;;;18.84;43.40
52777;BME280;38656;54.260;20.822;2023-04-28T08:05:58;101441.38;;;17.86;45.52
52777;BME280;38656;54.260;20.822;2023-04-28T08:08:24;101437.22;;;18.85;43.48
52777;BME280;38656;54.260;20.822;2023-04-28T08:10:51;101442.09;;;17.89;43.90
52777;BME280;38656;54.260;20.822;2023-04-28T08:13:18;101441.84;;;18.65;43.13
52777;BME280;38656;54.260;20.822;2023-04-28T08:15:44;101443.19;;;20.53;40.40
52777;BME280;38656;54.260;20.822;2023-04-28T08:18:12;101452.41;;;18.85;40.31
52777;BME280;38656;54.260;20.822;2023-04-28T08:20:38;101445.75;;;20.63;40.33
52777;BME280;38656;54.260;20.822;2023-04-28T08:23:04;101447.59;;;19.77;38.41
52777;BME280;38656;54.260;20.822;2023-04-28T08:25:30;101445.91;;;17.76;39.07
52777;BME280;38656;54.260;20.822;2023-04-28T08:27:57;101442.91;;;17.51;41.04
52777;BME280;38656;54.260;20.822;2023-04-28T08:30:23;101444.59;;;17.52;40.83
52777;BME280;38656;54.260;20.822;2023-04-28T08:32:49;101442.69;;;18.66;38.66
52777;BME280;38656;54.260;20.822;2023-04-28T08:35:16;101444.38;;;16.97;38.56
52777;BME280;38656;54.260;20.822;2023-04-28T08:37:42;101444.19;;;17.28;39.47
52777;BME280;38656;54.260;20.822;2023-04-28T08:40:09;101442.09;;;17.89;40.76
52777;BME280;38656;54.260;20.822;2023-04-28T08:42:36;101439.91;;;18.12;40.68
52777;BME280;38656;54.260;20.822;2023-04-28T08:45:04;101439.19;;;16.95;40.41
52777;BME280;38656;54.260;20.822;2023-04-28T08:47:37;101440.94;;;17.44;39.68
52777;BME280;38656;54.260;20.822;2023-04-28T08:50:06;101437.66;;;18.35;39.46
52777;BME280;38656;54.260;20.822;2023-04-28T08:52:34;101443.50;;;16.17;42.47
52777;BME280;38656;54.260;20.822;2023-04-28T08:55:04;101443.53;;;15.86;42.46
52777;BME280;38656;54.260;20.822;2023-04-28T08:57:45;101442.81;;;16.15;41.90
52777;BME280;38656;54.260;20.822;2023-04-28T09:00:14;101439.22;;;16.45;42.36
52777;BME280;38656;54.260;20.822;2023-04-28T09:02:40;101440.91;;;15.74;43.04
52777;BME280;38656;54.260;20.822;2023-04-28T09:05:11;101440.13;;;17.33;41.60
52777;BME280;38656;54.260;20.822;2023-04-28T09:07:37;101427.25;;;19.14;38.48
52777;BME280;38656;54.260;20.822;2023-04-28T09:10:23;101433.22;;;20.80;38.04
52777;BME280;38656;54.260;20.822;2023-04-28T09:12:53;101419.31;;;20.93;36.70
52777;BME280;38656;54.260;20.822;2023-04-28T09:15:28;101423.53;;;18.88;37.56
52777;BME280;38656;54.260;20.822;2023-04-28T09:17:56;101421.00;;;18.41;37.14
52777;BME280;38656;54.260;20.822;2023-04-28T09:20:27;101417.47;;;17.95;37.56
52777;BME280;38656;54.260;20.822;2023-04-28T09:22:55;101428.63;;;20.05;33.71
52777;BME280;38656;54.260;20.822;2023-04-28T09:25:22;101423.97;;;18.38;34.72
52777;BME280;38656;54.260;20.822;2023-04-28T09:27:49;101417.72;;;20.57;32.37
52777;BME280;38656;54.260;20.822;2023-04-28T09:30:16;101425.56;;;18.95;34.36
52777;BME280;38656;54.260;20.822;2023-04-28T09:32:42;101412.41;;;20.74;33.40
52777;BME280;38656;54.260;20.822;2023-04-28T09:35:08;101409.13;;;19.07;34.19
52777;BME280;38656;54.260;20.822;2023-04-28T09:37:35;101415.69;;;19.66;33.98
52777;BME280;38656;54.260;20.822;2023-04-28T09:40:09;101422.97;;;18.67;35.17
52777;BME280;38656;54.260;20.822;2023-04-28T09:42:43;101420.44;;;18.47;35.99
52777;BME280;38656;54.260;20.822;2023-04-28T09:45:14;101408.16;;;18.27;34.09
52777;BME280;38656;54.260;20.822;2023-04-28T09:47:43;101404.00;;;20.85;33.09
52777;BME280;38656;54.260;20.822;2023-04-28T09:50:12;101407.03;;;21.07;33.18
52777;BME280;38656;54.260;20.822;2023-04-28T09:52:55;101416.78;;;17.93;33.74
52777;BME280;38656;54.260;20.822;2023-04-28T09:55:22;101412.53;;;18.28;32.19
52777;BME280;38656;54.260;20.822;2023-04-28T09:57:49;101405.66;;;19.68;31.35
52777;BME280;38656;54.260;20.822;2023-04-28T10:00:20;101396.78;;;20.02;32.17
52777;BME280;38656;54.260;20.822;2023-04-28T10:02:49;101398.59;;;20.52;31.22
52777;BME280;38656;54.260;20.822;2023-04-28T10:05:16;101377.44;;;21.39;29.92
52777;BME280;38656;54.260;20.822;2023-04-28T10:07:44;101388.22;;;20.98;31.68
52777;BME280;38656;54.260;20.822;2023-04-28T10:10:12;101396.28;;;19.72;32.43
52777;BME280;38656;54.260;20.822;2023-04-28T10:12:48;101391.22;;;18.54;33.59
52777;BME280;38656;54.260;20.822;2023-04-28T10:15:16;101397.34;;;18.18;33.36
52777;BME280;38656;54.260;20.822;2023-04-28T10:17:42;101388.28;;;19.19;32.68
52777;BME280;38656;54.260;20.822;2023-04-28T10:20:09;101385.53;;;21.23;30.70
52777;BME280;38656;54.260;20.822;2023-04-28T10:27:47;101384.69;;;18.20;32.93
52777;BME280;38656;54.260;20.822;2023-04-28T10:30:18;101386.44;;;17.46;35.25
52777;BME280;38656;54.260;20.822;2023-04-28T10:32:44;101385.03;;;17.42;35.57
52777;BME280;38656;54.260;20.822;2023-04-28T10:40:43;101386.97;;;17.50;35.50
52777;BME280;38656;54.260;20.822;2023-04-28T10:56:23;101392.06;;;19.95;31.11
52777;BME280;38656;54.260;20.822;2023-04-28T10:58:57;101397.97;;;18.76;31.75
52777;BME280;38656;54.260;20.822;2023-04-28T11:01:23;101399.75;;;19.12;30.89
52777;BME280;38656;54.260;20.822;2023-04-28T11:03:54;101381.91;;;22.12;28.04
52777;BME280;38656;54.260;20.822;2023-04-28T11:06:34;101390.59;;;20.77;29.29
52777;BME280;38656;54.260;20.822;2023-04-28T11:14:37;101370.56;;;19.79;30.82
52777;BME280;38656;54.260;20.822;2023-04-28T11:17:07;101386.09;;;18.61;31.40
52777;BME280;38656;54.260;20.822;2023-04-28T11:19:44;101389.94;;;18.76;31.20
52777;BME280;38656;54.260;20.822;2023-04-28T11:22:18;101389.16;;;18.84;32.52
52777;BME280;38656;54.260;20.822;2023-04-28T11:27:26;101390.25;;;18.73;31.34
52777;BME280;38656;54.260;20.822;2023-04-28T11:29:52;101387.91;;;19.75;31.34
52777;BME280;38656;54.260;20.822;2023-04-28T11:32:34;101383.41;;;18.61;31.63
52777;BME280;38656;54.260;20.822;2023-04-28T11:35:01;101377.50;;;19.63;31.88
52777;BME280;38656;54.260;20.822;2023-04-28T11:37:29;101378.38;;;19.38;31.74
52777;BME280;38656;54.260;20.822;2023-04-28T11:39:55;101376.09;;;19.51;29.85
52777;BME280;38656;54.260;20.822;2023-04-28T11:42:22;101374.44;;;17.98;32.82
52777;BME280;38656;54.260;20.822;2023-04-28T11:44:52;101374.63;;;19.91;31.29
52777;BME280;38656;54.260;20.822;2023-04-28T11:47:29;101373.59;;;19.84;31.01
52777;BME280;38656;54.260;20.822;2023-04-28T11:49:56;101380.66;;;19.33;31.17
52777;BME280;38656;54.260;20.822;2023-04-28T11:52:22;101379.25;;;17.84;32.62
52777;BME280;38656;54.260;20.822;2023-04-28T11:54:56;101384.41;;;17.96;32.97
52777;BME280;38656;54.260;20.822;2023-04-28T11:57:24;101376.88;;;17.34;33.44
52777;BME280;38656;54.260;20.822;2023-04-28T11:59:51;101381.44;;;18.63;33.75
52777;BME280;38656;54.260;20.822;2023-04-28T12:02:29;101383.78;;;17.74;32.41
52777;BME280;38656;54.260;20.822;2023-04-28T12:05:03;101372.03;;;19.21;31.54
52777;BME280;38656;54.260;20.822;2023-04-28T12:07:38;101367.91;;;21.29;29.43
52777;BME280;38656;54.260;20.822;2023-04-28T12:10:11;101374.44;;;21.26;31.86
52777;BME280;38656;54.260;20.822;2023-04-28T12:12:39;101370.63;;;19.95;30.21
52777;BME280;38656;54.260;20.822;2023-04-28T12:15:06;101374.69;;;19.13;31.63
52777;BME280;38656;54.260;20.822;2023-04-28T12:17:36;101365.44;;;18.35;32.50
52777;BME280;38656;54.260;20.822;2023-04-28T12:20:05;101371.84;;;18.88;31.63
52777;BME280;38656;54.260;20.822;2023-04-28T12:22:44;101373.72;;;18.60;33.00
52777;BME280;38656;54.260;20.822;2023-04-28T12:25:13;101367.09;;;18.46;32.21
52777;BME280;38656;54.260;20.822;2023-04-28T12:27:57;101375.28;;;17.89;31.68
52777;BME280;38656;54.260;20.822;2023-04-28T12:30:24;101372.50;;;17.90;32.85
52777;BME280;38656;54.260;20.822;2023-04-28T12:32:51;101367.75;;;17.74;32.50
52777;BME280;38656;54.260;20.822;2023-04-28T12:35:21;101368.81;;;16.96;32.89
52777;BME280;38656;54.260;20.822;2023-04-28T12:37:48;101373.97;;;16.59;32.88
52777;BME280;38656;54.260;20.822;2023-04-28T12:40:14;101372.66;;;17.41;33.08
52777;BME280;38656;54.260;20.822;2023-04-28T12:42:40;101361.03;;;18.98;31.82
52777;BME280;38656;54.260;20.822;2023-04-28T12:45:07;101359.28;;;20.18;29.71
52777;BME280;38656;54.260;20.822;2023-04-28T12:47:36;101355.75;;;18.70;31.59
52777;BME280;38656;54.260;20.822;2023-04-28T12:50:04;101353.00;;;19.58;32.12
52777;BME280;38656;54.260;20.822;2023-04-28T12:52:30;101353.53;;;18.11;32.64
52777;BME280;38656;54.260;20.822;2023-04-28T12:54:59;101346.22;;;20.23;31.32
52777;BME280;38656;54.260;20.822;2023-04-28T12:57:25;101346.31;;;19.28;31.66
52777;BME280;38656;54.260;20.822;2023-04-28T12:59:52;101341.72;;;20.24;30.79
52777;BME280;38656;54.260;20.822;2023-04-28T13:02:18;101348.03;;;20.06;30.83
52777;BME280;38656;54.260;20.822;2023-04-28T13:04:44;101342.50;;;19.31;31.07
52777;BME280;38656;54.260;20.822;2023-04-28T13:07:14;101344.84;;;19.34;30.86
52777;BME280;38656;54.260;20.822;2023-04-28T13:09:41;101335.09;;;18.80;31.50
52777;BME280;38656;54.260;20.822;2023-04-28T13:12:08;101328.03;;;21.40;29.63
52777;BME280;38656;54.260;20.822;2023-04-28T13:14:36;101338.94;;;18.24;31.35
52777;BME280;38656;54.260;20.822;2023-04-28T13:17:02;101333.81;;;19.37;30.72